Time;durP1;ratioP1;P1;durP2;ratioP2;P2;SDS_P1;SDS_P2;PMS_P1;PMS_P2;Temp;Humidity;BMP_temperature;BMP_pressure;BME280_temperature;BME280_humidity;BME280_pressure;Samples;Min_cycle;Max_cycle;Signal;HPM_P1;HPM_P2
2022/05/14 00:00:53;;;;;;;3.25;1.38;;;13.60;99.90;;;;;;5019805;28;20027;-69
2022/05/14 00:03:19;;;;;;;4.15;1.00;;;13.50;99.90;;;;;;5019486;28;20034;-69
2022/05/14 00:05:45;;;;;;;4.03;1.10;;;13.50;99.90;;;;;;5019393;28;20398;-69
2022/05/14 00:08:12;;;;;;;4.60;1.20;;;13.50;99.90;;;;;;5019463;28;20077;-69
2022/05/14 00:13:23;;;;;;;3.58;1.33;;;13.30;99.90;;;;;;5019638;28;20382;-69
2022/05/14 00:15:51;;;;;;;5.82;1.80;;;13.20;99.90;;;;;;5019264;28;20376;-69
2022/05/14 00:18:17;;;;;;;7.68;2.03;;;13.10;99.90;;;;;;5019630;28;20030;-69
2022/05/14 00:20:43;;;;;;;4.45;1.77;;;13.20;99.90;;;;;;5019107;28;20453;-69
2022/05/14 00:23:09;;;;;;;7.85;1.95;;;13.20;99.90;;;;;;5019663;28;20129;-69
2022/05/14 00:25:36;;;;;;;4.97;2.28;;;13.20;99.90;;;;;;5019027;28;20069;-69
2022/05/14 00:28:03;;;;;;;6.28;2.50;;;13.00;99.90;;;;;;5018934;28;20084;-69
2022/05/14 00:30:31;;;;;;;6.75;2.53;;;13.00;99.90;;;;;;5018910;28;20069;-69
2022/05/14 00:32:57;;;;;;;9.02;3.25;;;12.90;99.90;;;;;;5019087;28;20029;-68
2022/05/14 00:35:24;;;;;;;6.22;3.10;;;12.80;99.90;;;;;;5018906;28;20022;-69
2022/05/14 00:37:50;;;;;;;6.18;3.10;;;12.80;99.90;;;;;;5018282;28;20398;-69
2022/05/14 00:40:28;;;;;;;8.52;3.30;;;12.90;99.90;;;;;;5018937;28;20033;-68
2022/05/14 00:42:54;;;;;;;5.35;3.17;;;12.90;99.90;;;;;;5018673;28;20045;-68
2022/05/14 00:45:22;;;;;;;6.45;3.08;;;12.80;99.90;;;;;;5034582;28;20127;-69
2022/05/14 00:47:51;;;;;;;7.43;3.55;;;12.90;99.90;;;;;;5017954;28;20033;-69
2022/05/14 00:50:41;;;;;;;7.97;4.03;;;12.90;99.90;;;;;;5018657;28;20375;-69
2022/05/14 00:53:09;;;;;;;8.07;4.22;;;12.80;99.90;;;;;;5018502;28;20400;-68
2022/05/14 00:55:37;;;;;;;6.15;3.83;;;12.70;99.90;;;;;;5018462;28;20036;-69
2022/05/14 00:58:05;;;;;;;10.00;4.40;;;12.60;99.90;;;;;;5034093;28;20034;-69
2022/05/14 01:00:32;;;;;;;8.95;4.18;;;12.70;99.90;;;;;;5033984;28;20033;-70
2022/05/14 01:02:58;;;;;;;9.15;3.90;;;12.70;99.90;;;;;;5017634;28;20306;-70
2022/05/14 01:05:25;;;;;;;7.68;3.78;;;12.60;99.90;;;;;;5033988;28;20120;-69
2022/05/14 01:07:53;;;;;;;7.53;3.83;;;12.60;99.90;;;;;;5018315;28;20433;-69
2022/05/14 01:10:26;;;;;;;8.13;3.50;;;12.50;99.90;;;;;;5017541;28;20033;-69
2022/05/14 01:12:58;;;;;;;5.28;3.53;;;12.50;99.90;;;;;;5033825;28;20025;-70
2022/05/14 01:15:39;;;;;;;6.90;3.67;;;12.40;99.90;;;;;;5017714;28;20037;-69
2022/05/14 01:18:04;;;;;;;7.95;3.65;;;12.40;99.90;;;;;;5018327;28;20347;-70
2022/05/14 01:20:35;;;;;;;8.63;3.40;;;12.40;99.90;;;;;;4984798;28;20119;-70
2022/05/14 01:23:20;;;;;;;6.10;3.67;;;12.30;99.90;;;;;;5017280;28;20038;-69
2022/05/14 01:28:47;;;;;;;7.65;3.17;;;12.40;99.90;;;;;;5017090;28;20041;-68
2022/05/14 01:31:13;;;;;;;6.72;2.97;;;12.40;99.90;;;;;;5017780;28;20313;-68
2022/05/14 01:33:39;;;;;;;6.88;3.00;;;12.40;99.90;;;;;;5033505;28;20049;-69
2022/05/14 01:36:07;;;;;;;6.35;3.00;;;12.30;99.90;;;;;;5033402;28;20032;-68
2022/05/14 01:38:35;;;;;;;6.93;3.15;;;12.20;99.90;;;;;;5000795;28;20030;-70
2022/05/14 01:41:01;;;;;;;8.63;3.40;;;12.20;99.90;;;;;;5017662;28;20069;-70
2022/05/14 01:43:28;;;;;;;6.30;2.70;;;12.20;99.90;;;;;;5000495;28;20046;-69
2022/05/14 01:45:54;;;;;;;8.77;2.78;;;12.20;99.90;;;;;;5017333;28;20120;-70
2022/05/14 01:48:20;;;;;;;6.43;2.47;;;12.20;99.90;;;;;;5017663;28;20125;-69
2022/05/14 01:50:46;;;;;;;6.07;2.75;;;12.20;99.90;;;;;;5016818;28;20125;-69
2022/05/14 01:53:12;;;;;;;7.47;2.85;;;12.20;99.90;;;;;;5017303;28;20374;-70
2022/05/14 01:55:38;;;;;;;7.07;2.55;;;12.20;99.90;;;;;;5017780;28;20030;-69
2022/05/14 02:00:50;;;;;;;11.25;2.20;;;12.20;99.90;;;;;;5016681;28;20038;-70
2022/05/14 02:03:16;;;;;;;6.82;1.88;;;12.10;99.90;;;;;;5016589;28;20117;-69
2022/05/14 02:05:42;;;;;;;6.68;2.60;;;12.00;99.90;;;;;;5016612;28;20026;-69
2022/05/14 02:08:08;;;;;;;6.00;2.42;;;12.00;99.90;;;;;;5033126;28;20041;-69
2022/05/14 02:10:34;;;;;;;5.78;2.40;;;12.00;99.90;;;;;;5016745;28;20117;-69
2022/05/14 02:13:00;;;;;;;6.72;2.45;;;12.00;99.90;;;;;;5032739;28;20045;-69
2022/05/14 02:15:26;;;;;;;8.93;2.92;;;12.00;99.90;;;;;;5017479;28;20045;-69
2022/05/14 02:17:52;;;;;;;9.57;3.00;;;11.90;99.90;;;;;;5016569;28;20165;-70
2022/05/14 02:20:19;;;;;;;7.18;2.58;;;11.80;99.90;;;;;;5032863;28;20287;-70
2022/05/14 02:22:45;;;;;;;8.95;2.78;;;11.80;99.90;;;;;;5016467;28;20045;-71
2022/05/14 02:25:11;;;;;;;6.25;2.78;;;11.80;99.90;;;;;;5016538;28;20033;-70
2022/05/14 02:27:37;;;;;;;6.25;2.80;;;11.70;99.90;;;;;;5017297;28;20053;-69
2022/05/14 02:30:05;;;;;;;8.43;2.55;;;11.80;99.90;;;;;;5016369;28;20034;-69
2022/05/14 02:32:31;;;;;;;7.95;2.50;;;11.80;99.90;;;;;;5032677;28;20406;-70
2022/05/14 02:34:59;;;;;;;14.38;2.97;;;11.70;99.90;;;;;;5016377;28;20429;-69
2022/05/14 02:37:26;;;;;;;6.80;2.30;;;11.70;99.90;;;;;;5016381;28;20053;-69
2022/05/14 02:39:53;;;;;;;8.27;2.50;;;11.70;99.90;;;;;;5017178;28;20353;-69
2022/05/14 02:42:19;;;;;;;8.43;2.50;;;11.70;99.90;;;;;;5016053;28;20444;-70
2022/05/14 02:44:45;;;;;;;3.88;1.88;;;11.70;99.90;;;;;;5017090;28;20034;-69
2022/05/14 02:47:11;;;;;;;8.63;2.15;;;11.70;99.90;;;;;;5016279;28;20061;-69
2022/05/14 02:49:38;;;;;;;4.93;2.47;;;11.80;99.90;;;;;;5032674;28;20429;-70
2022/05/14 02:52:05;;;;;;;6.35;2.20;;;11.80;99.90;;;;;;5016140;28;20033;-70
2022/05/14 02:54:31;;;;;;;4.82;2.20;;;11.60;99.90;;;;;;5016912;28;20042;-69
2022/05/14 02:56:57;;;;;;;8.30;2.75;;;11.70;99.90;;;;;;5016791;28;20034;-70
2022/05/14 02:59:23;;;;;;;7.75;2.67;;;11.60;99.90;;;;;;5016902;28;20397;-69
2022/05/14 03:01:49;;;;;;;9.32;3.22;;;11.70;99.90;;;;;;5032537;28;20044;-70
2022/05/14 03:04:38;;;;;;;6.03;2.45;;;11.70;99.90;;;;;;5016870;28;20030;-69
2022/05/14 03:07:08;;;;;;;5.15;2.50;;;11.70;99.90;;;;;;5032631;28;20053;-69
2022/05/14 03:09:38;;;;;;;9.05;3.15;;;11.70;99.90;;;;;;5016841;28;20030;-69
2022/05/14 03:12:06;;;;;;;7.20;2.47;;;11.70;99.90;;;;;;5016951;28;20038;-70
2022/05/14 03:14:33;;;;;;;9.63;3.10;;;11.60;99.90;;;;;;5016765;28;20038;-69
2022/05/14 03:16:59;;;;;;;5.10;2.70;;;11.50;99.90;;;;;;5016572;28;20040;-69
2022/05/14 03:19:25;;;;;;;6.50;2.97;;;11.40;99.90;;;;;;5015914;28;20096;-69
2022/05/14 03:21:51;;;;;;;7.82;2.85;;;11.40;99.90;;;;;;5032469;28;20467;-70
2022/05/14 03:24:18;;;;;;;5.57;2.42;;;11.40;99.90;;;;;;5020270;28;20129;-70
2022/05/14 03:26:45;;;;;;;7.22;2.80;;;11.40;99.90;;;;;;5020366;28;20030;-70
2022/05/14 03:29:11;;;;;;;8.38;2.80;;;11.40;99.90;;;;;;5020873;28;20034;-70
2022/05/14 03:31:40;;;;;;;8.82;2.50;;;11.40;99.90;;;;;;5019280;28;20080;-69
2022/05/14 03:34:07;;;;;;;5.95;2.40;;;11.40;99.90;;;;;;5019189;28;20026;-68
2022/05/14 03:36:33;;;;;;;6.90;2.30;;;11.50;99.90;;;;;;5020294;28;20353;-69
2022/05/14 03:38:59;;;;;;;5.13;2.22;;;11.40;99.90;;;;;;5020283;28;20093;-69
2022/05/14 03:41:28;;;;;;;4.90;2.33;;;11.50;99.90;;;;;;5020276;28;20456;-69
2022/05/14 03:43:55;;;;;;;6.40;2.42;;;11.40;99.90;;;;;;5019095;28;20108;-69
2022/05/14 03:46:21;;;;;;;8.85;2.40;;;11.30;99.90;;;;;;5019830;28;20037;-69
2022/05/14 03:48:47;;;;;;;6.72;2.45;;;11.30;99.90;;;;;;5019811;28;20361;-69
2022/05/14 03:51:12;;;;;;;8.02;2.45;;;11.30;99.90;;;;;;5019610;28;20044;-68
2022/05/14 03:53:40;;;;;;;6.63;2.70;;;11.30;99.90;;;;;;5018840;28;20145;-69
2022/05/14 03:56:06;;;;;;;6.90;2.45;;;11.20;99.90;;;;;;5018860;28;20044;-69
2022/05/14 03:58:33;;;;;;;8.05;2.30;;;11.20;99.90;;;;;;5019601;28;20026;-68
2022/05/14 04:00:59;;;;;;;8.75;2.42;;;11.20;99.90;;;;;;5019546;28;20022;-70
2022/05/14 04:03:25;;;;;;;12.20;2.70;;;11.20;99.90;;;;;;5020076;28;20453;-68
2022/05/14 04:05:51;;;;;;;10.38;2.63;;;11.30;99.90;;;;;;5018698;28;20337;-69
2022/05/14 04:08:18;;;;;;;8.20;2.60;;;11.30;99.90;;;;;;5018650;28;20045;-69
2022/05/14 04:10:44;;;;;;;8.77;2.90;;;11.30;99.90;;;;;;5019620;28;20030;-70
2022/05/14 04:13:14;;;;;;;5.70;2.40;;;11.30;99.90;;;;;;5019643;28;20034;-69
2022/05/14 04:15:41;;;;;;;6.88;2.45;;;11.30;99.90;;;;;;5018489;28;20137;-69
2022/05/14 04:18:07;;;;;;;8.13;3.13;;;11.40;99.90;;;;;;5019007;28;20470;-69
2022/05/14 04:20:34;;;;;;;7.70;2.97;;;11.40;99.90;;;;;;5019299;28;20026;-69
2022/05/14 04:23:00;;;;;;;8.32;2.78;;;11.30;99.90;;;;;;5034722;28;20038;-69
2022/05/14 04:25:26;;;;;;;8.52;2.63;;;11.30;99.90;;;;;;5018327;28;20095;-68
2022/05/14 04:27:52;;;;;;;7.88;2.78;;;11.30;99.90;;;;;;5019385;28;20081;-69
2022/05/14 04:30:18;;;;;;;6.13;2.83;;;11.20;99.90;;;;;;5019032;28;20030;-69
2022/05/14 04:32:46;;;;;;;6.65;2.63;;;11.20;99.90;;;;;;5002019;28;20121;-69
2022/05/14 04:35:15;;;;;;;10.02;3.00;;;11.30;99.90;;;;;;5017507;28;20030;-70
2022/05/14 04:37:41;;;;;;;8.52;3.25;;;11.30;99.90;;;;;;5018061;28;20161;-70
2022/05/14 04:40:09;;;;;;;6.40;3.03;;;11.40;99.90;;;;;;5018835;28;20034;-68
2022/05/14 04:42:38;;;;;;;7.50;3.05;;;11.40;99.90;;;;;;5018613;28;20049;-69
2022/05/14 04:45:08;;;;;;;9.40;3.67;;;11.40;99.90;;;;;;5034367;28;20409;-69
2022/05/14 04:47:35;;;;;;;7.88;2.55;;;11.40;99.90;;;;;;5034509;28;20022;-69
2022/05/14 04:50:02;;;;;;;7.35;2.72;;;11.40;99.90;;;;;;5017809;28;20125;-69
2022/05/14 04:52:28;;;;;;;6.25;2.40;;;11.40;99.90;;;;;;5018818;28;20034;-68
2022/05/14 04:54:57;;;;;;;10.05;2.67;;;11.40;99.90;;;;;;5019128;28;20472;-69
2022/05/14 04:57:25;;;;;;;14.02;3.20;;;11.50;99.90;;;;;;5034243;28;20095;-69
2022/05/14 04:59:53;;;;;;;8.82;3.15;;;11.50;99.90;;;;;;5001937;28;20034;-69
2022/05/14 05:05:05;;;;;;;10.10;3.33;;;11.60;99.90;;;;;;5017714;28;20042;-69
2022/05/14 05:07:31;;;;;;;13.75;3.55;;;11.40;99.90;;;;;;5033794;28;20084;-70
2022/05/14 05:09:57;;;;;;;7.88;3.20;;;11.50;99.90;;;;;;5033897;28;20126;-69
2022/05/14 05:12:23;;;;;;;5.88;3.20;;;11.60;99.90;;;;;;5018196;28;20173;-69
2022/05/14 05:14:49;;;;;;;11.32;3.20;;;11.70;99.90;;;;;;5018300;28;20041;-69
2022/05/14 05:17:15;;;;;;;7.95;3.60;;;11.80;99.90;;;;;;5018203;28;20037;-69
2022/05/14 05:19:41;;;;;;;9.27;3.30;;;11.80;99.90;;;;;;5017404;28;20420;-69
2022/05/14 05:22:07;;;;;;;10.00;3.40;;;11.90;99.90;;;;;;5018449;28;20092;-69
2022/05/14 05:24:33;;;;;;;10.10;3.50;;;11.80;99.90;;;;;;5018041;28;20042;-69
2022/05/14 05:26:59;;;;;;;8.75;3.63;;;11.90;99.90;;;;;;5018975;28;20045;-69
2022/05/14 05:29:25;;;;;;;13.02;3.88;;;12.00;99.90;;;;;;5018464;28;20298;-69
2022/05/14 05:31:51;;;;;;;8.23;3.63;;;11.90;99.90;;;;;;5019249;28;20096;-67
2022/05/14 05:34:17;;;;;;;9.05;3.85;;;12.00;99.90;;;;;;5028059;28;20030;-69
2022/05/14 05:36:43;;;;;;;10.45;3.63;;;12.10;99.90;;;;;;5025503;28;20446;-68
2022/05/14 05:39:10;;;;;;;12.80;4.00;;;12.20;99.90;;;;;;5023336;28;20061;-69
2022/05/14 05:41:36;;;;;;;8.25;3.50;;;12.30;99.90;;;;;;5017634;28;20033;-69
2022/05/14 05:44:02;;;;;;;13.63;4.38;;;12.20;99.90;;;;;;5017470;28;20096;-70
2022/05/14 05:46:31;;;;;;;13.55;4.28;;;12.20;99.90;;;;;;5017003;28;20034;-69
2022/05/14 05:48:56;;;;;;;8.70;4.13;;;12.20;99.90;;;;;;5017577;28;20400;-69
2022/05/14 05:51:22;;;;;;;11.70;4.07;;;12.20;99.90;;;;;;5018597;28;20060;-69
2022/05/14 05:56:51;;;;;;;12.25;5.00;;;12.30;99.90;;;;;;5017968;28;20033;-68
2022/05/14 05:59:19;;;;;;;14.50;5.18;;;12.40;99.90;;;;;;5017787;28;20034;-69
2022/05/14 06:01:45;;;;;;;15.13;4.70;;;12.30;99.90;;;;;;5017698;28;20037;-69
2022/05/14 06:04:11;;;;;;;10.38;4.40;;;12.30;99.90;;;;;;5016629;28;20417;-69
2022/05/14 06:06:41;;;;;;;13.65;5.80;;;12.30;99.90;;;;;;5017308;28;20077;-67
2022/05/14 06:09:08;;;;;;;14.77;5.78;;;12.30;99.90;;;;;;5017321;28;20048;-67
2022/05/14 06:11:34;;;;;;;15.05;5.18;;;12.20;99.90;;;;;;5017330;28;20049;-68
2022/05/14 06:14:00;;;;;;;17.48;6.10;;;12.10;99.90;;;;;;5017416;28;20045;-67
2022/05/14 06:16:26;;;;;;;12.65;6.22;;;12.20;99.90;;;;;;5017192;28;20092;-68
2022/05/14 06:18:52;;;;;;;13.25;6.28;;;12.40;99.90;;;;;;5000084;28;20444;-67
2022/05/14 06:21:18;;;;;;;14.07;6.47;;;12.70;99.90;;;;;;5017380;28;20042;-68
2022/05/14 06:23:43;;;;;;;16.25;6.38;;;12.90;99.90;;;;;;5017025;28;20034;-67
2022/05/14 06:26:09;;;;;;;12.82;6.20;;;12.70;99.90;;;;;;5017111;28;20394;-67
2022/05/14 06:28:35;;;;;;;17.48;6.57;;;12.70;99.90;;;;;;5017016;28;20030;-67
2022/05/14 06:31:01;;;;;;;17.35;6.47;;;12.70;99.90;;;;;;5017454;28;20030;-68
2022/05/14 06:33:28;;;;;;;17.15;6.30;;;12.70;99.90;;;;;;5016963;28;20334;-69
2022/05/14 06:35:54;;;;;;;18.08;6.40;;;12.80;99.90;;;;;;5017346;28;20033;-68
2022/05/14 06:38:20;;;;;;;12.27;6.20;;;12.80;99.90;;;;;;5017345;28;20349;-67
2022/05/14 06:40:46;;;;;;;17.88;6.57;;;13.00;99.90;;;;;;5017297;28;20042;-68
2022/05/14 06:43:15;;;;;;;16.75;6.03;;;13.20;99.90;;;;;;5016759;28;20085;-68
2022/05/14 06:45:45;;;;;;;19.58;6.40;;;13.30;99.90;;;;;;5016924;28;20042;-69
2022/05/14 06:48:12;;;;;;;13.80;6.25;;;13.30;99.90;;;;;;5017552;28;20117;-69
2022/05/14 06:50:45;;;;;;;18.52;6.90;;;13.40;99.90;;;;;;5016075;28;20068;-67
2022/05/14 06:53:13;;;;;;;17.40;6.50;;;13.50;99.90;;;;;;5016730;28;20044;-67
2022/05/14 06:55:41;;;;;;;15.73;6.43;;;13.60;99.90;;;;;;5016787;28;20022;-66
2022/05/14 06:58:11;;;;;;;18.90;6.32;;;13.50;99.90;;;;;;5019264;28;20152;-68
2022/05/14 07:00:37;;;;;;;13.65;6.60;;;13.70;99.90;;;;;;5020546;28;20025;-68
2022/05/14 07:08:32;;;;;;;15.23;6.28;;;13.60;99.90;;;;;;5021183;28;20378;-69
2022/05/14 07:10:58;;;;;;;14.57;6.28;;;13.90;99.90;;;;;;5020405;28;20042;-69
2022/05/14 07:13:24;;;;;;;13.00;6.75;;;14.00;99.90;;;;;;5020385;28;20026;-69
2022/05/14 07:15:50;;;;;;;16.90;6.13;;;14.20;99.90;;;;;;5020329;28;20417;-69
2022/05/14 07:18:15;;;;;;;14.15;6.50;;;14.10;99.90;;;;;;5020444;28;20509;-69
2022/05/14 07:20:41;;;;;;;17.83;6.43;;;14.20;99.90;;;;;;5019353;28;20037;-68
2022/05/14 07:23:07;;;;;;;15.02;6.03;;;14.20;99.90;;;;;;5020199;28;20034;-68
2022/05/14 07:25:33;;;;;;;16.77;7.10;;;14.20;99.90;;;;;;5020052;28;20034;-67
2022/05/14 07:27:58;;;;;;;15.43;6.20;;;13.90;99.90;;;;;;5020072;28;20037;-69
2022/05/14 07:30:24;;;;;;;17.33;6.07;;;13.90;99.90;;;;;;5019930;28;20050;-67
2022/05/14 07:32:51;;;;;;;15.55;6.72;;;14.10;99.90;;;;;;5019934;28;20052;-67
2022/05/14 07:35:17;;;;;;;18.98;6.90;;;14.20;99.90;;;;;;5020038;28;20034;-67
2022/05/14 07:37:52;;;;;;;15.82;6.35;;;14.40;99.90;;;;;;5020322;28;20042;-69
2022/05/14 07:40:22;;;;;;;13.73;6.20;;;14.60;99.90;;;;;;5019993;28;20037;-69
2022/05/14 07:42:50;;;;;;;20.30;6.97;;;14.90;99.90;;;;;;5020522;28;20065;-69
2022/05/14 07:45:21;;;;;;;14.93;6.47;;;15.30;99.90;;;;;;5019710;28;20054;-68
2022/05/14 07:47:48;;;;;;;15.18;6.10;;;15.30;99.90;;;;;;5019861;28;20068;-67
2022/05/14 07:50:14;;;;;;;21.23;7.40;;;15.30;99.90;;;;;;5021704;28;20033;-69
2022/05/14 07:52:41;;;;;;;17.83;5.97;;;15.70;99.90;;;;;;5021198;28;20034;-69
2022/05/14 07:55:08;;;;;;;18.25;6.72;;;15.80;99.90;;;;;;5018884;28;20025;-69
2022/05/14 07:57:34;;;;;;;17.83;6.47;;;15.70;99.90;;;;;;5019519;28;20041;-69
2022/05/14 08:00:00;;;;;;;11.73;5.90;;;15.40;99.90;;;;;;5019540;28;20022;-69
2022/05/14 08:02:34;;;;;;;14.75;5.93;;;15.40;99.90;;;;;;5019498;28;20309;-69
2022/05/14 08:05:03;;;;;;;11.20;5.18;;;15.70;99.90;;;;;;5019483;28;20046;-68
2022/05/14 08:07:31;;;;;;;16.33;6.40;;;15.50;99.90;;;;;;5019458;28;20044;-68
2022/05/14 08:09:58;;;;;;;11.98;5.28;;;15.70;99.90;;;;;;5018221;28;20033;-68
2022/05/14 08:12:24;;;;;;;13.80;6.40;;;16.00;99.90;;;;;;5019230;28;20058;-67
2022/05/14 08:14:50;;;;;;;15.52;5.57;;;16.00;99.90;;;;;;5019177;28;20025;-66
2022/05/14 08:17:17;;;;;;;13.50;5.88;;;16.20;99.90;;;;;;5019351;28;20301;-68
2022/05/14 08:19:44;;;;;;;15.23;5.75;;;16.50;99.90;;;;;;5019737;28;20030;-68
2022/05/14 08:24:55;;;;;;;14.02;5.72;;;16.90;99.90;;;;;;5018509;28;20061;-68
2022/05/14 08:27:20;;;;;;;12.73;5.72;;;16.70;99.90;;;;;;5019155;28;20110;-69
2022/05/14 08:29:47;;;;;;;14.70;5.18;;;16.30;99.90;;;;;;5018953;28;20022;-68
2022/05/14 08:32:14;;;;;;;10.18;4.43;;;16.10;99.90;;;;;;5019066;28;20115;-69
2022/05/14 08:34:39;;;;;;;14.82;4.93;;;16.10;99.90;;;;;;5018867;28;20030;-68
2022/05/14 08:37:06;;;;;;;14.63;4.93;;;16.30;99.90;;;;;;5020167;28;20092;-69
2022/05/14 08:39:33;;;;;;;12.32;4.60;;;16.70;99.90;;;;;;5019047;28;20048;-67
2022/05/14 08:42:00;;;;;;;12.00;4.38;;;16.60;99.90;;;;;;5018655;28;20044;-68
2022/05/14 08:44:32;;;;;;;13.15;4.50;;;16.50;99.90;;;;;;5018485;28;20061;-68
2022/05/14 08:47:07;;;;;;;17.08;4.93;;;16.50;99.90;;;;;;5018928;28;20079;-67
2022/05/14 08:49:47;;;;;;;15.48;5.22;;;16.40;99.90;;;;;;5018641;28;20041;-66
2022/05/14 08:52:20;;;;;;;10.82;5.20;;;16.30;99.90;;;;;;5018449;28;20026;-68
2022/05/14 08:54:46;;;;;;;11.23;4.97;;;16.10;99.90;;;;;;5019156;28;20123;-69
2022/05/14 08:57:37;;;;;;;17.50;4.88;;;16.20;99.90;;;;;;5019635;28;20029;-66
2022/05/14 09:00:06;;;;;;;14.40;5.47;;;16.60;99.90;;;;;;5023018;28;20033;-70
2022/05/14 09:02:53;;;;;;;10.68;4.65;;;17.00;99.90;;;;;;5021153;28;20033;-68
2022/05/14 09:05:27;;;;;;;15.80;4.97;;;17.40;99.90;;;;;;5019404;28;20030;-69
2022/05/14 09:07:53;;;;;;;15.40;4.63;;;17.30;99.90;;;;;;5018463;28;20358;-69
2022/05/14 09:10:26;;;;;;;15.45;4.38;;;17.40;99.90;;;;;;5017578;28;20042;-69
2022/05/14 09:13:09;;;;;;;11.80;3.95;;;17.60;99.90;;;;;;5017312;28;20040;-68
2022/05/14 09:15:47;;;;;;;9.48;3.67;;;17.50;99.90;;;;;;5018158;28;20069;-69
2022/05/14 09:18:22;;;;;;;13.38;4.32;;;17.50;99.90;;;;;;5018134;28;20034;-69
2022/05/14 09:20:54;;;;;;;12.52;3.83;;;17.40;99.90;;;;;;5017235;28;20022;-68
2022/05/14 09:23:46;;;;;;;14.85;4.13;;;17.50;99.90;;;;;;5018089;28;20033;-67
2022/05/14 09:26:20;;;;;;;16.67;4.32;;;17.50;99.90;;;;;;5011361;28;20044;-66
2022/05/14 09:28:49;;;;;;;10.50;3.72;;;17.50;99.90;;;;;;5018118;28;20092;-69
2022/05/14 09:31:36;;;;;;;11.68;3.90;;;17.40;99.90;;;;;;5020509;28;20113;-69
2022/05/14 09:34:04;;;;;;;9.40;3.65;;;17.90;99.90;;;;;;5017038;28;20301;-69
2022/05/14 09:36:31;;;;;;;13.48;3.95;;;18.00;99.90;;;;;;5017797;28;20036;-69
2022/05/14 09:39:03;;;;;;;12.10;3.63;;;17.80;99.90;;;;;;5017781;28;20032;-68
2022/05/14 09:41:42;;;;;;;15.52;4.18;;;17.80;99.90;;;;;;5017714;28;20528;-68
2022/05/14 09:44:15;;;;;;;13.13;3.78;;;17.90;99.90;;;;;;5017384;28;20317;-68
2022/05/14 09:46:40;;;;;;;12.13;3.90;;;18.00;99.90;;;;;;5016976;28;20061;-68
2022/05/14 09:49:08;;;;;;;14.82;3.90;;;18.00;99.90;;;;;;5020616;28;20026;-69
2022/05/14 09:52:00;;;;;;;12.80;3.20;;;17.90;99.90;;;;;;5019195;28;20334;-71
2022/05/14 09:54:46;;;;;;;8.73;3.35;;;18.20;99.90;;;;;;5022239;28;20061;-68
2022/05/14 09:57:30;;;;;;;8.52;3.40;;;18.60;99.90;;;;;;5017130;28;20107;-68
2022/05/14 10:00:02;;;;;;;9.20;3.40;;;18.60;99.90;;;;;;5019579;28;20034;-69
2022/05/14 10:02:55;;;;;;;10.98;3.65;;;18.80;99.90;;;;;;5017539;28;20034;-68
2022/05/14 10:05:56;;;;;;;12.13;3.63;;;19.00;99.90;;;;;;5018163;28;20113;-66
2022/05/14 10:08:27;;;;;;;10.55;3.10;;;19.10;99.90;;;;;;5018118;28;20301;-69
2022/05/14 10:11:06;;;;;;;9.93;3.40;;;19.30;99.90;;;;;;5019942;28;20405;-68
2022/05/14 10:13:49;;;;;;;11.85;3.55;;;19.60;99.90;;;;;;5017657;28;20305;-66
2022/05/14 10:16:30;;;;;;;14.32;4.25;;;19.70;99.90;;;;;;5018566;28;20025;-68
2022/05/14 10:19:05;;;;;;;10.70;3.42;;;19.80;99.90;;;;;;5017645;28;20034;-68
2022/05/14 10:21:51;;;;;;;10.50;3.35;;;19.80;99.90;;;;;;5017434;28;20088;-67
2022/05/14 10:27:42;;;;;;;8.95;2.95;;;19.70;99.90;;;;;;5012454;28;20283;-65
2022/05/14 10:30:15;;;;;;;8.98;2.88;;;20.10;99.90;;;;;;5017249;28;20096;-68
2022/05/14 10:32:44;;;;;;;13.38;3.78;;;20.00;99.90;;;;;;5021382;28;20352;-66
2022/05/14 10:35:18;;;;;;;9.50;2.88;;;20.00;99.90;;;;;;5022759;28;20041;-68
2022/05/14 10:37:50;;;;;;;10.10;3.00;;;20.30;99.90;;;;;;5024215;28;20030;-68
2022/05/14 10:40:42;;;;;;;12.10;3.42;;;20.40;99.90;;;;;;5021646;28;20037;-66
2022/05/14 10:43:43;;;;;;;8.30;2.78;;;20.50;99.90;;;;;;5024719;28;20068;-64
2022/05/14 10:46:11;;;;;;;10.73;3.03;;;20.70;99.90;;;;;;5021587;28;20034;-66
2022/05/14 10:49:06;;;;;;;11.73;3.00;;;20.50;99.90;;;;;;5020170;28;20030;-67
2022/05/14 10:51:37;;;;;;;8.32;3.15;;;20.30;99.90;;;;;;5021241;28;20045;-67
2022/05/14 10:54:03;;;;;;;9.90;2.90;;;20.40;99.90;;;;;;5020789;28;20332;-65
2022/05/14 10:56:33;;;;;;;10.32;2.80;;;20.60;99.90;;;;;;5020738;28;20052;-66
2022/05/14 10:59:10;;;;;;;10.90;3.20;;;21.20;99.90;;;;;;5004007;28;20022;-66
2022/05/14 11:01:58;;;;;;;8.27;2.85;;;21.40;99.90;;;;;;5021054;28;20292;-67
2022/05/14 11:04:25;;;;;;;6.93;2.50;;;22.10;99.90;;;;;;5020660;28;20038;-66
2022/05/14 11:07:01;;;;;;;13.10;3.13;;;23.20;99.90;;;;;;5021407;28;20356;-68
2022/05/14 11:09:46;;;;;;;10.35;3.22;;;25.00;99.90;;;;;;5021689;28;20045;-67
2022/05/14 11:12:31;;;;;;;11.10;3.22;;;26.40;99.90;;;;;;5020400;28;20072;-66
2022/05/14 11:14:59;;;;;;;10.15;2.72;;;25.90;99.90;;;;;;5020917;28;20398;-67
2022/05/14 11:17:32;;;;;;;6.93;2.72;;;24.50;99.90;;;;;;5019572;28;20088;-68
2022/05/14 11:20:16;;;;;;;9.68;2.92;;;25.10;99.90;;;;;;5020891;28;20038;-67
2022/05/14 11:22:51;;;;;;;12.77;3.50;;;27.00;96.20;;;;;;5024105;28;20030;-67
2022/05/14 11:25:16;;;;;;;11.45;3.22;;;28.40;95.70;;;;;;5020337;28;20030;-63
2022/05/14 11:27:53;;;;;;;9.13;3.28;;;29.20;93.10;;;;;;5021328;28;20088;-65
2022/05/14 11:30:30;;;;;;;9.70;3.05;;;30.00;91.50;;;;;;5020964;28;20037;-66
2022/05/14 11:32:57;;;;;;;8.63;3.17;;;30.60;90.20;;;;;;5020298;28;20037;-66
2022/05/14 11:35:23;;;;;;;7.18;2.75;;;29.30;88.20;;;;;;5022018;28;20382;-67
2022/05/14 11:37:52;;;;;;;8.73;3.63;;;28.80;89.90;;;;;;5020791;28;20053;-62
2022/05/14 11:40:20;;;;;;;12.43;3.40;;;27.80;90.00;;;;;;5020492;28;20101;-68
2022/05/14 11:43:06;;;;;;;10.80;3.65;;;28.10;90.10;;;;;;5018824;28;20045;-68
2022/05/14 11:45:34;;;;;;;8.65;2.85;;;26.20;91.40;;;;;;5019894;28;20056;-70
2022/05/14 11:48:17;;;;;;;9.00;3.13;;;25.10;94.20;;;;;;5019295;28;20126;-68
2022/05/14 11:51:01;;;;;;;;;;;26.40;92.30;;;;;;5021025;28;20037;-66
2022/05/14 11:53:44;;;;;;;7.80;2.70;;;27.90;90.60;;;;;;5019518;28;19925;-67
2022/05/14 11:56:18;;;;;;;11.35;3.15;;;29.40;87.10;;;;;;5020131;28;20036;-69
2022/05/14 11:58:55;;;;;;;7.40;2.90;;;30.70;80.30;;;;;;5022467;28;20088;-67
2022/05/14 12:01:28;;;;;;;9.18;3.42;;;31.20;76.60;;;;;;5022449;28;20041;-70
2022/05/14 12:03:54;;;;;;;8.30;3.10;;;31.30;75.80;;;;;;5021395;28;20037;-66
2022/05/14 12:06:29;;;;;;;9.88;2.78;;;32.30;73.90;;;;;;5020098;28;20053;-68
2022/05/14 12:09:18;;;;;;;10.70;2.90;;;33.10;70.00;;;;;;5018727;28;20038;-69
2022/05/14 12:11:47;;;;;;;8.30;2.65;;;29.90;76.10;;;;;;5022401;28;20037;-69
2022/05/14 12:14:19;;;;;;;7.53;2.67;;;31.10;74.10;;;;;;5021108;28;20037;-70
2022/05/14 12:16:53;;;;;;;7.65;2.80;;;31.10;72.20;;;;;;5019416;28;20088;-68
2022/05/14 12:19:51;;;;;;;11.07;3.75;;;30.90;72.90;;;;;;5021489;28;20030;-71
2022/05/14 12:22:20;;;;;;;8.38;2.80;;;31.50;69.50;;;;;;5019419;28;20045;-67
2022/05/14 12:25:12;;;;;;;9.52;2.92;;;32.40;65.80;;;;;;5018993;28;20034;-67
2022/05/14 12:27:48;;;;;;;10.18;2.42;;;33.90;63.10;;;;;;5018275;28;20065;-65
2022/05/14 12:30:13;;;;;;;9.45;2.67;;;35.10;59.90;;;;;;5024369;28;20267;-68
2022/05/14 12:35:31;;;;;;;6.07;2.60;;;34.80;58.40;;;;;;5021057;28;20118;-68
2022/05/14 12:37:59;;;;;;;8.80;3.05;;;35.10;56.80;;;;;;5018881;28;20054;-68
2022/05/14 12:40:30;;;;;;;8.68;3.10;;;32.20;58.30;;;;;;5018722;28;20029;-68
2022/05/14 12:42:58;;;;;;;8.90;2.78;;;30.80;62.60;;;;;;5018634;28;20143;-70
2022/05/14 12:45:37;;;;;;;9.23;2.83;;;30.00;66.80;;;;;;5018502;28;20041;-69
2022/05/14 12:48:04;;;;;;;8.73;3.40;;;32.70;60.90;;;;;;5019168;28;20042;-70
2022/05/14 12:50:32;;;;;;;6.55;2.20;;;34.70;55.70;;;;;;5018127;28;20034;-69
2022/05/14 12:53:05;;;;;;;7.95;2.40;;;35.80;54.00;;;;;;5018719;28;20034;-70
2022/05/14 12:55:37;;;;;;;6.05;2.75;;;37.50;51.80;;;;;;5020953;28;20034;-70
2022/05/14 12:58:03;;;;;;;8.07;2.50;;;38.20;48.90;;;;;;5018731;28;20033;-69
2022/05/14 13:00:32;;;;;;;9.82;2.67;;;37.80;47.80;;;;;;5018413;28;20040;-71
2022/05/14 13:03:07;;;;;;;10.48;3.28;;;37.20;47.90;;;;;;5019205;28;20025;-64
2022/05/14 13:05:35;;;;;;;8.25;3.03;;;37.40;46.50;;;;;;5019606;28;20036;-68
2022/05/14 13:08:08;;;;;;;6.30;2.22;;;36.70;46.60;;;;;;5017697;28;20417;-69
2022/05/14 13:10:35;;;;;;;4.30;2.13;;;36.20;47.70;;;;;;5018274;28;20030;-67
2022/05/14 13:13:08;;;;;;;6.90;2.97;;;36.10;48.30;;;;;;5018616;28;20406;-68
2022/05/14 13:15:40;;;;;;;7.25;2.70;;;34.50;49.00;;;;;;5018131;28;20128;-69
2022/05/14 13:18:26;;;;;;;7.20;2.60;;;34.50;49.30;;;;;;5017697;28;20022;-69
2022/05/14 13:21:08;;;;;;;9.73;3.80;;;36.70;47.10;;;;;;5019926;28;20089;-68
2022/05/14 13:23:36;;;;;;;5.40;2.08;;;36.50;45.80;;;;;;5018065;28;20033;-68
2022/05/14 13:26:04;;;;;;;7.18;3.03;;;37.70;45.10;;;;;;5018312;28;20071;-70